createdAt,value
2023-03-22T00:01:19.581Z,11.90
2023-03-22T00:03:47.975Z,11.90
2023-03-22T00:06:17.280Z,11.90
2023-03-22T00:08:46.119Z,11.90
2023-03-22T00:11:14.060Z,11.80
2023-03-22T00:13:42.944Z,11.80
2023-03-22T00:16:11.468Z,11.70
2023-03-22T00:18:41.225Z,11.70
2023-03-22T00:21:12.329Z,11.60
2023-03-22T00:23:41.042Z,11.50
2023-03-22T00:26:09.013Z,11.40
2023-03-22T00:28:37.653Z,11.40
2023-03-22T00:31:06.557Z,11.40
2023-03-22T00:33:35.057Z,11.40
2023-03-22T00:36:07.196Z,11.30
2023-03-22T00:38:42.416Z,11.30
2023-03-22T00:41:12.771Z,11.20
2023-03-22T00:43:40.788Z,11.20
2023-03-22T00:46:08.978Z,11.20
2023-03-22T00:48:37.024Z,11.20
2023-03-22T00:51:07.566Z,11.10
2023-03-22T00:53:36.458Z,11.10
2023-03-22T00:56:05.535Z,11.00
2023-03-22T00:58:33.589Z,10.90
2023-03-22T01:01:01.557Z,10.90
2023-03-22T01:03:29.496Z,10.90
2023-03-22T01:05:57.584Z,10.90
2023-03-22T01:08:33.572Z,10.90
2023-03-22T01:11:01.917Z,10.90
2023-03-22T01:13:29.956Z,10.80
2023-03-22T01:15:57.986Z,10.80
2023-03-22T01:18:25.936Z,10.80
2023-03-22T01:20:53.827Z,10.80
2023-03-22T01:23:21.757Z,10.80
2023-03-22T01:25:50.996Z,10.80
2023-03-22T01:28:18.833Z,10.70
2023-03-22T01:30:46.722Z,10.70
2023-03-22T01:33:14.623Z,10.70
2023-03-22T01:35:42.542Z,10.70
2023-03-22T01:38:10.457Z,10.70
2023-03-22T01:40:38.797Z,10.70
2023-03-22T01:43:14.155Z,10.60
2023-03-22T01:45:43.999Z,10.60
2023-03-22T01:48:24.563Z,10.60
2023-03-22T01:51:02.868Z,10.50
2023-03-22T01:53:34.092Z,10.50
2023-03-22T01:56:02.642Z,10.50
2023-03-22T01:58:34.499Z,10.40
2023-03-22T02:01:03.838Z,10.40
2023-03-22T02:03:37.999Z,10.40
2023-03-22T02:06:06.265Z,10.40
2023-03-22T02:08:34.448Z,10.30
2023-03-22T02:11:04.258Z,10.30
2023-03-22T02:14:03.583Z,10.30
2023-03-22T02:16:42.427Z,10.20
2023-03-22T02:19:42.255Z,10.20
2023-03-22T02:22:41.916Z,10.10
2023-03-22T02:25:43.763Z,10.10
2023-03-22T02:28:31.397Z,10.00
2023-03-22T02:31:30.651Z,10.00
2023-03-22T02:34:17.712Z,10.00
2023-03-22T02:37:19.059Z,9.90
2023-03-22T02:39:51.839Z,9.90
2023-03-22T02:42:41.784Z,9.80
2023-03-22T02:45:14.494Z,9.80
2023-03-22T02:47:49.829Z,9.70
2023-03-22T02:50:24.648Z,9.70
2023-03-22T02:52:57.307Z,9.70
2023-03-22T02:55:32.200Z,9.80
2023-03-22T02:58:05.775Z,9.80
2023-03-22T03:00:34.495Z,9.70
2023-03-22T03:03:11.344Z,9.70
2023-03-22T03:05:42.397Z,9.70
2023-03-22T03:08:13.407Z,9.60
2023-03-22T03:10:43.446Z,9.60
2023-03-22T03:13:13.869Z,9.60
2023-03-22T03:15:43.881Z,9.50
2023-03-22T03:18:27.498Z,9.50
2023-03-22T03:21:03.810Z,9.50
2023-03-22T03:23:41.281Z,9.50
2023-03-22T03:26:18.817Z,9.50
2023-03-22T03:28:52.160Z,9.50
2023-03-22T03:31:32.418Z,9.40
2023-03-22T03:34:08.360Z,9.40
2023-03-22T03:36:40.445Z,9.40
2023-03-22T03:39:12.047Z,9.40
2023-03-22T03:41:44.535Z,9.30
2023-03-22T03:44:13.776Z,9.30
2023-03-22T03:46:42.540Z,9.30
2023-03-22T03:49:12.734Z,9.20
2023-03-22T03:51:49.374Z,9.20
2023-03-22T03:54:17.372Z,9.20
2023-03-22T03:56:47.767Z,9.20
2023-03-22T03:59:16.808Z,9.20
2023-03-22T04:01:50.149Z,9.10
2023-03-22T04:04:26.229Z,9.10
2023-03-22T04:06:56.735Z,9.10
2023-03-22T04:09:25.302Z,9.10
2023-03-22T04:11:55.309Z,9.10
2023-03-22T04:14:23.531Z,9.10
2023-03-22T04:16:51.722Z,9.10
2023-03-22T04:19:20.048Z,9.00
2023-03-22T04:21:48.161Z,9.00
2023-03-22T04:24:16.382Z,9.00
2023-03-22T04:26:44.234Z,9.00
2023-03-22T04:29:13.475Z,9.00
2023-03-22T04:31:41.751Z,9.00
2023-03-22T04:34:09.657Z,8.90
2023-03-22T04:36:39.437Z,8.90
2023-03-22T04:39:10.438Z,8.90
2023-03-22T04:41:39.077Z,8.90
2023-03-22T04:44:08.204Z,8.90
2023-03-22T04:46:38.641Z,8.90
2023-03-22T04:49:07.361Z,8.80
2023-03-22T04:51:35.244Z,8.80
2023-03-22T04:54:03.197Z,8.70
2023-03-22T04:56:31.059Z,8.70
2023-03-22T04:58:59.056Z,8.70
2023-03-22T05:01:26.944Z,8.60
2023-03-22T05:03:56.237Z,8.60
2023-03-22T05:06:24.321Z,8.50
2023-03-22T05:08:52.190Z,8.50
2023-03-22T05:11:20.399Z,8.50
2023-03-22T05:13:48.323Z,8.50
2023-03-22T05:16:16.424Z,8.40
2023-03-22T05:18:45.449Z,8.40
2023-03-22T05:21:15.926Z,8.30
2023-03-22T05:23:44.410Z,8.40
2023-03-22T05:26:15.992Z,8.40
2023-03-22T05:28:44.309Z,8.40
2023-03-22T05:31:14.650Z,8.40
2023-03-22T05:33:42.716Z,8.40
2023-03-22T05:36:12.231Z,8.40
2023-03-22T05:38:41.576Z,8.40
2023-03-22T05:41:10.596Z,8.40
2023-03-22T05:43:38.719Z,8.40
2023-03-22T05:46:07.432Z,8.50
2023-03-22T05:48:35.952Z,8.50
2023-03-22T05:51:06.488Z,8.50
2023-03-22T05:53:34.363Z,8.40
2023-03-22T05:56:03.769Z,8.40
2023-03-22T05:58:33.854Z,8.40
2023-03-22T06:01:07.018Z,8.40
2023-03-22T06:03:35.050Z,8.40
2023-03-22T06:06:06.645Z,8.40
2023-03-22T06:08:34.920Z,8.40
2023-03-22T06:11:04.710Z,8.40
2023-03-22T06:13:33.107Z,8.50
2023-03-22T06:16:02.005Z,8.50
2023-03-22T06:18:30.868Z,8.50
2023-03-22T06:20:59.481Z,8.50
2023-03-22T06:23:27.728Z,8.40
2023-03-22T06:25:55.941Z,8.50
2023-03-22T06:28:29.543Z,8.50
2023-03-22T06:30:57.891Z,8.50
2023-03-22T06:33:25.814Z,8.50
2023-03-22T06:35:53.725Z,8.50
2023-03-22T06:38:21.681Z,8.60
2023-03-22T06:40:49.611Z,8.70
2023-03-22T06:43:17.556Z,8.70
2023-03-22T06:45:49.284Z,8.80
2023-03-22T06:48:17.242Z,8.90
2023-03-22T06:50:46.188Z,9.00
2023-03-22T06:53:14.601Z,9.10
2023-03-22T06:55:42.539Z,9.20
2023-03-22T06:58:10.381Z,9.30
2023-03-22T07:00:39.147Z,9.40
2023-03-22T07:03:08.609Z,9.60
2023-03-22T07:05:36.535Z,9.70
2023-03-22T07:08:04.846Z,9.80
2023-03-22T07:10:32.771Z,9.90
2023-03-22T07:13:02.932Z,10.00
2023-03-22T07:15:31.221Z,10.10
2023-03-22T07:18:00.673Z,10.20
2023-03-22T07:20:30.179Z,10.30
2023-03-22T07:22:58.164Z,10.40
2023-03-22T07:25:26.104Z,10.50
2023-03-22T07:27:53.958Z,10.60
2023-03-22T07:30:22.082Z,10.80
2023-03-22T07:32:49.998Z,10.90
2023-03-22T07:35:18.876Z,11.00
2023-03-22T07:37:48.555Z,11.10
2023-03-22T07:40:16.641Z,11.20
2023-03-22T07:42:44.562Z,11.30
2023-03-22T07:45:12.811Z,11.50
2023-03-22T07:47:41.645Z,11.60
2023-03-22T07:50:11.751Z,11.70
2023-03-22T07:52:39.908Z,11.90
2023-03-22T07:55:11.053Z,12.20
2023-03-22T07:57:39.256Z,12.80
2023-03-22T08:00:10.320Z,13.70
2023-03-22T08:02:38.700Z,14.60
2023-03-22T08:05:07.459Z,15.60
2023-03-22T08:07:35.446Z,16.60
2023-03-22T08:10:03.362Z,17.70
2023-03-22T08:12:32.680Z,18.50
2023-03-22T08:15:01.623Z,19.40
2023-03-22T08:17:30.386Z,20.10
2023-03-22T08:19:58.313Z,21.00
2023-03-22T08:22:29.809Z,21.70
2023-03-22T08:24:57.854Z,22.30
2023-03-22T08:27:26.257Z,22.90
2023-03-22T08:29:55.653Z,23.50
2023-03-22T08:32:23.621Z,24.10
2023-03-22T08:34:52.714Z,24.80
2023-03-22T08:37:21.216Z,25.70
2023-03-22T08:39:49.358Z,26.50
2023-03-22T08:42:17.307Z,27.00
2023-03-22T08:44:46.072Z,27.60
2023-03-22T08:47:15.482Z,28.10
2023-03-22T08:49:43.505Z,29.00
2023-03-22T08:52:11.514Z,29.80
2023-03-22T08:54:39.584Z,30.70
2023-03-22T08:57:09.484Z,31.70
2023-03-22T08:59:37.487Z,32.40
2023-03-22T09:02:05.794Z,32.80
2023-03-22T09:04:35.210Z,33.50
2023-03-22T09:07:03.217Z,33.90
2023-03-22T09:09:31.254Z,34.30
2023-03-22T09:11:59.118Z,34.70
2023-03-22T09:14:26.989Z,35.30
2023-03-22T09:16:55.013Z,36.00
2023-03-22T09:19:22.956Z,36.10
2023-03-22T09:21:52.384Z,36.70
2023-03-22T09:24:20.436Z,37.10
2023-03-22T09:26:48.604Z,37.40
2023-03-22T09:29:16.650Z,37.60
2023-03-22T09:31:45.055Z,37.50
2023-03-22T09:34:13.214Z,37.70
2023-03-22T09:36:41.144Z,38.00
2023-03-22T09:39:10.380Z,38.20
2023-03-22T09:41:42.280Z,38.00
2023-03-22T09:44:16.355Z,38.00
2023-03-22T09:46:48.934Z,38.30
2023-03-22T09:49:19.311Z,39.10
2023-03-22T09:51:49.145Z,39.80
2023-03-22T09:54:21.591Z,40.20
2023-03-22T09:56:54.531Z,40.10
2023-03-22T09:59:31.688Z,40.10
2023-03-22T10:02:02.956Z,40.50
2023-03-22T10:04:56.832Z,40.30
2023-03-22T10:07:28.794Z,39.60
2023-03-22T10:10:09.395Z,39.70
2023-03-22T10:12:42.249Z,39.30
2023-03-22T10:15:15.716Z,39.50
2023-03-22T10:17:47.505Z,40.20
2023-03-22T10:20:26.340Z,40.10
2023-03-22T10:22:57.081Z,40.10
2023-03-22T10:25:37.874Z,40.90
2023-03-22T10:28:17.866Z,41.10
2023-03-22T10:30:51.030Z,41.00
2023-03-22T10:33:26.250Z,40.50
2023-03-22T10:35:55.163Z,39.90
2023-03-22T10:38:26.006Z,39.50
2023-03-22T10:40:58.906Z,39.80
2023-03-22T10:43:32.138Z,39.90
2023-03-22T10:46:02.335Z,39.70
2023-03-22T10:48:33.469Z,38.40
2023-03-22T10:51:03.326Z,37.40
2023-03-22T10:53:39.204Z,36.30
2023-03-22T10:56:14.011Z,36.00
2023-03-22T10:58:42.165Z,36.10
2023-03-22T11:01:11.967Z,36.10
2023-03-22T11:03:42.101Z,36.70
2023-03-22T11:06:12.459Z,37.70
2023-03-22T11:08:43.518Z,38.70
2023-03-22T11:11:20.597Z,39.50
2023-03-22T11:13:55.132Z,40.20
2023-03-22T11:16:24.598Z,41.00
2023-03-22T11:18:52.578Z,41.40
2023-03-22T11:21:24.045Z,41.80
2023-03-22T11:23:57.256Z,41.60
2023-03-22T11:26:37.459Z,42.10
2023-03-22T11:29:14.574Z,42.30
2023-03-22T11:32:00.924Z,42.50
2023-03-22T11:34:31.691Z,42.60
2023-03-22T11:37:01.565Z,42.00
2023-03-22T11:39:30.655Z,42.10
2023-03-22T11:42:01.547Z,41.40
2023-03-22T11:44:34.416Z,40.00
2023-03-22T11:47:04.062Z,38.60
2023-03-22T11:49:41.287Z,38.40
2023-03-22T11:52:12.558Z,38.30
2023-03-22T11:54:42.418Z,38.70
2023-03-22T11:57:16.972Z,39.30
2023-03-22T11:59:51.111Z,39.70
2023-03-22T12:02:24.666Z,39.40
2023-03-22T12:05:00.627Z,39.00
2023-03-22T12:07:31.258Z,38.00
2023-03-22T12:10:04.096Z,36.90
2023-03-22T12:12:39.782Z,36.70
2023-03-22T12:15:15.708Z,36.80
2023-03-22T12:17:50.072Z,35.90
2023-03-22T12:20:27.811Z,34.90
2023-03-22T12:22:56.367Z,34.40
2023-03-22T12:25:27.994Z,34.90
2023-03-22T12:28:00.367Z,35.50
2023-03-22T12:30:31.571Z,36.60
2023-03-22T12:33:03.687Z,37.50
2023-03-22T12:35:34.592Z,38.40
2023-03-22T12:38:10.978Z,39.10
2023-03-22T12:40:41.693Z,39.90
2023-03-22T12:43:17.684Z,40.50
2023-03-22T12:45:53.166Z,40.60
2023-03-22T12:48:28.949Z,40.40
2023-03-22T12:51:01.413Z,39.50
2023-03-22T12:53:34.723Z,38.60
2023-03-22T12:56:03.528Z,38.50
2023-03-22T12:58:32.890Z,38.90
2023-03-22T13:01:12.454Z,39.30
2023-03-22T13:03:45.505Z,39.00
2023-03-22T13:06:33.152Z,37.80
2023-03-22T13:09:19.393Z,36.80
2023-03-22T13:11:48.886Z,36.60
2023-03-22T13:14:50.173Z,36.50
2023-03-22T13:17:39.300Z,36.30
2023-03-22T13:20:39.073Z,36.40
2023-03-22T13:23:27.468Z,36.50
2023-03-22T13:26:06.518Z,36.80
2023-03-22T13:28:38.231Z,36.40
2023-03-22T13:31:07.567Z,35.90
2023-03-22T13:33:38.709Z,35.60
2023-03-22T13:36:23.735Z,35.60
2023-03-22T13:38:56.936Z,35.40
2023-03-22T13:41:29.696Z,35.40
2023-03-22T13:43:59.961Z,35.40
2023-03-22T13:46:43.925Z,35.90
2023-03-22T13:49:48.530Z,35.70
2023-03-22T13:52:36.173Z,36.10
2023-03-22T13:55:05.008Z,36.50
2023-03-22T13:57:49.198Z,36.60
2023-03-22T14:00:37.878Z,35.60
2023-03-22T14:03:25.294Z,34.40
2023-03-22T14:06:10.655Z,33.50
2023-03-22T14:08:41.593Z,32.60
2023-03-22T14:11:21.783Z,32.10
2023-03-22T14:13:53.245Z,31.60
2023-03-22T14:16:28.290Z,30.90
2023-03-22T14:18:57.435Z,30.20
2023-03-22T14:21:33.473Z,29.50
